Time;durP1;ratioP1;P1;durP2;ratioP2;P2;SDS_P1;SDS_P2;PMS_P1;PMS_P2;Temp;Humidity;BMP_temperature;BMP_pressure;BME280_temperature;BME280_humidity;BME280_pressure;Samples;Min_cycle;Max_cycle;Signal;HPM_P1;HPM_P2
2022/05/02 00:01:30;;;;;;;13.53;11.50;;;;;;;;;;10407858;28;20073;-78
2022/05/02 00:06:31;;;;;;;13.30;11.90;;;;;;;;;;10366038;28;20050;-78
2022/05/02 00:11:31;;;;;;;12.40;11.20;;;;;;;;;;10343025;28;20070;-79
2022/05/02 00:16:31;;;;;;;12.20;11.00;;;;;;;;;;10340305;28;20273;-79
2022/05/02 00:21:35;;;;;;;14.35;12.85;;;;;;;;;;10379375;28;20050;-79
2022/05/02 00:26:35;;;;;;;15.73;13.65;;;;;;;;;;10366403;28;20057;-79
2022/05/02 00:31:35;;;;;;;12.77;10.95;;;;;;;;;;10359359;28;20046;-79
2022/05/02 00:36:36;;;;;;;16.05;12.82;;;;;;;;;;10374182;28;20038;-78
2022/05/02 00:41:36;;;;;;;14.00;11.98;;;;;;;;;;10347309;28;20053;-79
2022/05/02 00:46:37;;;;;;;13.83;12.43;;;;;;;;;;10376099;28;20038;-79
2022/05/02 00:51:39;;;;;;;15.70;13.40;;;;;;;;;;10370652;28;20145;-78
2022/05/02 00:56:40;;;;;;;15.82;14.15;;;;;;;;;;10391802;28;20046;-80
2022/05/02 01:01:44;;;;;;;15.90;13.75;;;;;;;;;;10392370;28;20234;-80
2022/05/02 01:12:05;;;;;;;17.40;14.07;;;;;;;;;;10366904;28;20245;-78
2022/05/02 01:17:06;;;;;;;15.68;13.75;;;;;;;;;;10370246;28;20504;-78
2022/05/02 01:22:07;;;;;;;16.15;14.32;;;;;;;;;;10350840;28;20080;-80
2022/05/02 01:27:08;;;;;;;19.00;15.10;;;;;;;;;;10357660;28;20342;-79
2022/05/02 01:32:14;;;;;;;18.17;14.98;;;;;;;;;;10355735;28;20440;-80
2022/05/02 01:37:14;;;;;;;17.08;15.27;;;;;;;;;;10358570;28;20857;-79
2022/05/02 01:42:15;;;;;;;17.30;14.63;;;;;;;;;;10371820;28;20072;-79
2022/05/02 01:47:15;;;;;;;16.35;14.63;;;;;;;;;;10364613;28;20301;-81
2022/05/02 01:52:15;;;;;;;17.20;14.83;;;;;;;;;;10369352;28;20037;-78
2022/05/02 01:57:16;;;;;;;15.13;13.53;;;;;;;;;;10369514;28;20058;-79
2022/05/02 02:02:16;;;;;;;16.20;14.55;;;;;;;;;;10377661;28;20347;-78
2022/05/02 02:07:17;;;;;;;15.47;13.83;;;;;;;;;;10377672;28;20041;-80
2022/05/02 02:12:18;;;;;;;15.70;13.32;;;;;;;;;;10351021;28;20351;-81
2022/05/02 02:17:19;;;;;;;17.17;15.37;;;;;;;;;;10391584;28;20072;-80
2022/05/02 02:22:20;;;;;;;16.83;14.93;;;;;;;;;;10366742;28;20500;-81
2022/05/02 02:27:22;;;;;;;15.57;13.98;;;;;;;;;;10358940;28;20125;-79
2022/05/02 02:32:22;;;;;;;15.70;12.80;;;;;;;;;;10376129;28;20116;-79
2022/05/02 02:37:22;;;;;;;17.88;14.68;;;;;;;;;;10359005;28;20165;-79
2022/05/02 02:42:23;;;;;;;16.57;14.63;;;;;;;;;;10354603;28;20056;-80
2022/05/02 02:47:24;;;;;;;19.73;15.18;;;;;;;;;;10369491;28;20277;-79
2022/05/02 02:52:24;;;;;;;17.48;15.10;;;;;;;;;;10385075;28;20072;-79
2022/05/02 02:57:25;;;;;;;16.50;14.57;;;;;;;;;;10365556;28;20053;-78
2022/05/02 03:02:25;;;;;;;17.90;15.15;;;;;;;;;;10352489;28;20053;-79
2022/05/02 03:07:26;;;;;;;18.50;16.40;;;;;;;;;;10360306;28;20149;-79
2022/05/02 03:12:27;;;;;;;18.90;16.90;;;;;;;;;;10360696;28;20054;-78
2022/05/02 03:17:27;;;;;;;17.27;15.43;;;;;;;;;;10345528;28;20065;-80
2022/05/02 03:22:30;;;;;;;18.00;14.67;;;;;;;;;;10337551;28;20064;-81
2022/05/02 03:27:30;;;;;;;17.88;15.98;;;;;;;;;;10369015;28;20772;-78
2022/05/02 03:32:31;;;;;;;16.30;14.70;;;;;;;;;;10360458;28;20049;-78
2022/05/02 03:37:31;;;;;;;18.50;16.43;;;;;;;;;;10356693;28;20339;-78
2022/05/02 03:42:31;;;;;;;18.33;15.73;;;;;;;;;;10366039;28;20329;-78
2022/05/02 03:47:32;;;;;;;15.77;14.07;;;;;;;;;;10359913;28;20046;-78
2022/05/02 03:52:32;;;;;;;16.97;14.70;;;;;;;;;;10371634;28;20272;-80
2022/05/02 03:57:32;;;;;;;19.52;16.35;;;;;;;;;;10362818;28;20443;-78
2022/05/02 04:02:33;;;;;;;17.37;14.57;;;;;;;;;;10371010;28;20060;-80
2022/05/02 04:07:33;;;;;;;21.27;16.07;;;;;;;;;;10366954;28;20265;-79
2022/05/02 04:12:34;;;;;;;20.35;16.25;;;;;;;;;;10357524;28;20041;-78
2022/05/02 04:17:35;;;;;;;20.30;17.40;;;;;;;;;;10359463;28;20072;-78
2022/05/02 04:22:40;;;;;;;16.95;15.00;;;;;;;;;;10367432;28;20057;-79
2022/05/02 04:27:41;;;;;;;19.55;16.35;;;;;;;;;;10357692;28;20046;-78
2022/05/02 04:32:42;;;;;;;19.48;15.43;;;;;;;;;;10383795;28;20056;-80
2022/05/02 04:37:42;;;;;;;19.15;15.65;;;;;;;;;;10385821;28;20522;-77
2022/05/02 04:42:44;;;;;;;16.40;13.47;;;;;;;;;;10373284;28;20056;-77
2022/05/02 04:47:44;;;;;;;17.65;14.73;;;;;;;;;;10370149;28;20049;-78
2022/05/02 04:52:45;;;;;;;19.00;14.77;;;;;;;;;;10357415;28;20046;-79
2022/05/02 04:57:47;;;;;;;16.88;14.35;;;;;;;;;;10374617;28;20053;-78
2022/05/02 05:02:48;;;;;;;14.52;12.27;;;;;;;;;;10365706;28;20041;-78
2022/05/02 05:07:50;;;;;;;22.03;15.57;;;;;;;;;;10347188;28;20042;-78
2022/05/02 05:13:07;;;;;;;16.27;14.50;;;;;;;;;;10382785;28;20284;-79
2022/05/02 05:18:13;;;;;;;18.38;15.18;;;;;;;;;;10386881;28;20054;-78
2022/05/02 05:23:17;;;;;;;14.88;13.25;;;;;;;;;;10368756;28;20069;-79
2022/05/02 05:28:24;;;;;;;17.08;14.57;;;;;;;;;;10374039;28;20081;-78
2022/05/02 05:33:29;;;;;;;15.05;13.45;;;;;;;;;;10377668;28;20149;-77
2022/05/02 05:38:45;;;;;;;14.23;12.07;;;;;;;;;;10357024;28;20057;-78
2022/05/02 05:43:57;;;;;;;14.15;12.15;;;;;;;;;;10362203;28;20072;-80
2022/05/02 05:49:17;;;;;;;14.70;12.10;;;;;;;;;;10376500;28;20044;-80
2022/05/02 05:54:17;;;;;;;16.55;13.18;;;;;;;;;;10369476;28;20064;-80
2022/05/02 05:59:31;;;;;;;12.75;11.45;;;;;;;;;;10370970;28;20140;-79
2022/05/02 06:04:35;;;;;;;;;;;;;;;;;;10372713;28;20042;-78
2022/05/02 06:09:36;;;;;;;12.98;11.57;;;;;;;;;;10380775;28;19925;-79
2022/05/02 06:18:27;;;;;;;13.52;11.77;;;;;;;;;;10354092;28;20042;-80
2022/05/02 06:19:59;;;;;;;11.40;10.27;;;;;;;;;;10355584;28;20062;-78
2022/05/02 06:25:00;;;;;;;13.95;10.35;;;;;;;;;;10368668;28;20069;-78
2022/05/02 06:30:01;;;;;;;12.88;10.75;;;;;;;;;;10367024;28;20069;-79
2022/05/02 06:35:03;;;;;;;12.02;10.77;;;;;;;;;;10398846;28;20418;-79
2022/05/02 06:40:14;;;;;;;10.70;9.60;;;;;;;;;;10384737;28;20061;-80
2022/05/02 06:45:15;;;;;;;13.55;10.50;;;;;;;;;;10374446;28;20090;-78
2022/05/02 06:50:17;;;;;;;10.83;9.73;;;;;;;;;;10358154;28;20048;-78
2022/05/02 06:55:34;;;;;;;11.00;9.90;;;;;;;;;;10378212;28;20100;-77
2022/05/02 07:00:37;;;;;;;13.75;10.13;;;;;;;;;;10366966;28;20106;-78
2022/05/02 07:05:45;;;;;;;15.20;9.52;;;;;;;;;;10368624;28;20044;-78
2022/05/02 07:10:50;;;;;;;9.43;8.40;;;;;;;;;;10350131;28;20061;-78
2022/05/02 07:15:55;;;;;;;9.63;8.50;;;;;;;;;;10354204;28;20050;-78
2022/05/02 07:20:56;;;;;;;11.77;8.93;;;;;;;;;;10344598;28;20050;-80
2022/05/02 07:26:04;;;;;;;11.63;9.02;;;;;;;;;;10338586;28;20800;-78
2022/05/02 07:31:08;;;;;;;10.65;9.55;;;;;;;;;;10355802;28;20212;-77
2022/05/02 07:36:13;;;;;;;9.47;8.43;;;;;;;;;;10386376;28;20053;-80
2022/05/02 07:41:23;;;;;;;8.13;7.32;;;;;;;;;;10369166;28;20085;-78
2022/05/02 07:46:25;;;;;;;10.35;8.85;;;;;;;;;;10341917;28;20054;-76
2022/05/02 07:51:26;;;;;;;;;;;;;;;;;;10365094;28;20046;-77
2022/05/02 07:56:28;;;;;;;8.52;7.53;;;;;;;;;;10347728;28;20020;-78
2022/05/02 08:01:29;;;;;;;7.80;7.00;;;;;;;;;;10371436;28;20054;-78
2022/05/02 08:06:33;;;;;;;10.48;9.07;;;;;;;;;;10370709;28;20049;-78
2022/05/02 08:11:33;;;;;;;8.40;7.60;;;;;;;;;;10370820;28;20061;-76
2022/05/02 08:16:37;;;;;;;10.02;9.02;;;;;;;;;;10369083;28;20049;-77
2022/05/02 08:21:38;;;;;;;12.80;8.70;;;;;;;;;;10344943;28;20061;-77
2022/05/02 08:32:14;;;;;;;8.93;7.93;;;;;;;;;;10371561;28;20053;-77
2022/05/02 08:37:17;;;;;;;9.60;8.10;;;;;;;;;;10364655;28;20049;-76
2022/05/02 08:42:36;;;;;;;7.80;6.95;;;;;;;;;;10358324;28;20046;-76
2022/05/02 08:47:55;;;;;;;6.95;6.18;;;;;;;;;;10367963;28;20069;-77
2022/05/02 08:53:20;;;;;;;7.85;7.05;;;;;;;;;;10363731;28;20323;-76
2022/05/02 08:58:26;;;;;;;8.43;7.70;;;;;;;;;;10359935;28;20116;-77
2022/05/02 09:03:42;;;;;;;10.13;6.93;;;;;;;;;;10344609;28;20100;-76
2022/05/02 09:08:48;;;;;;;8.05;7.18;;;;;;;;;;10342283;28;20046;-77
2022/05/02 09:14:10;;;;;;;7.70;7.00;;;;;;;;;;10365725;28;20046;-77
2022/05/02 09:19:19;;;;;;;7.00;6.30;;;;;;;;;;10358489;28;20049;-77
2022/05/02 09:24:22;;;;;;;7.20;6.22;;;;;;;;;;10371311;28;20057;-77
2022/05/02 09:29:40;;;;;;;6.75;5.97;;;;;;;;;;10372459;28;20061;-78
2022/05/02 09:34:54;;;;;;;7.03;6.15;;;;;;;;;;10372024;28;20149;-77
2022/05/02 09:39:58;;;;;;;7.18;6.00;;;;;;;;;;10368186;28;20058;-77
2022/05/02 09:50:37;;;;;;;6.70;6.10;;;;;;;;;;10381043;28;20073;-77
2022/05/02 10:01:21;;;;;;;5.95;5.43;;;;;;;;;;10367401;28;20229;-77
2022/05/02 10:06:43;;;;;;;5.95;5.20;;;;;;;;;;10371528;28;20371;-78
2022/05/02 10:11:50;;;;;;;5.68;5.15;;;;;;;;;;10362753;28;20085;-76
2022/05/02 10:16:51;;;;;;;5.47;4.97;;;;;;;;;;10351904;28;20030;-77
2022/05/02 10:22:00;;;;;;;5.57;5.07;;;;;;;;;;10356626;28;20070;-77
2022/05/02 10:27:10;;;;;;;5.80;5.25;;;;;;;;;;10359660;28;20056;-78
2022/05/02 10:32:29;;;;;;;5.70;4.78;;;;;;;;;;10346078;28;20069;-78
2022/05/02 10:37:34;;;;;;;5.15;4.65;;;;;;;;;;10369984;28;20050;-74
2022/05/02 10:42:35;;;;;;;5.45;4.72;;;;;;;;;;10348212;28;20129;-77
2022/05/02 10:47:51;;;;;;;6.28;5.40;;;;;;;;;;10365406;28;20056;-77
2022/05/02 10:52:54;;;;;;;5.30;4.78;;;;;;;;;;10364269;28;20045;-77
2022/05/02 10:57:56;;;;;;;5.38;4.97;;;;;;;;;;10363674;28;20054;-77
2022/05/02 11:03:04;;;;;;;5.18;4.68;;;;;;;;;;10355069;28;20041;-77
2022/05/02 11:08:09;;;;;;;;;;;;;;;;;;10369979;28;20109;-77
2022/05/02 11:13:28;;;;;;;4.97;4.57;;;;;;;;;;10357358;28;20415;-80
2022/05/02 11:24:07;;;;;;;5.88;5.30;;;;;;;;;;10367545;28;20054;-78
2022/05/02 11:29:13;;;;;;;5.25;4.75;;;;;;;;;;10352855;28;20438;-77
2022/05/02 11:34:34;;;;;;;5.75;5.25;;;;;;;;;;10353921;28;20424;-79
2022/05/02 11:39:37;;;;;;;5.40;4.70;;;;;;;;;;10370755;28;20073;-78
2022/05/02 11:44:47;;;;;;;5.32;4.82;;;;;;;;;;10374302;28;20050;-78
2022/05/02 11:49:51;;;;;;;5.72;4.97;;;;;;;;;;10365277;28;20045;-79
2022/05/02 11:54:54;;;;;;;5.05;4.65;;;;;;;;;;10384572;28;20109;-77
2022/05/02 12:00:05;;;;;;;5.30;4.90;;;;;;;;;;10370807;28;20128;-77
2022/05/02 12:05:15;;;;;;;5.50;4.45;;;;;;;;;;10384529;28;20128;-80
2022/05/02 12:10:16;;;;;;;5.50;5.00;;;;;;;;;;10347054;28;20046;-77
2022/05/02 12:15:16;;;;;;;5.80;5.20;;;;;;;;;;10395527;28;20123;-76
2022/05/02 12:20:29;;;;;;;5.40;4.90;;;;;;;;;;10389316;28;20084;-77
2022/05/02 12:25:31;;;;;;;4.57;4.20;;;;;;;;;;10345643;28;20473;-78
2022/05/02 12:30:31;;;;;;;5.25;4.75;;;;;;;;;;10349072;28;20065;-76
2022/05/02 12:35:33;;;;;;;4.68;4.28;;;;;;;;;;10362843;28;20049;-76
2022/05/02 12:40:35;;;;;;;5.57;4.35;;;;;;;;;;10369016;28;20142;-76
2022/05/02 12:45:46;;;;;;;4.22;3.83;;;;;;;;;;10388279;28;20156;-77
2022/05/02 12:50:48;;;;;;;4.55;4.15;;;;;;;;;;10354038;28;20531;-77
2022/05/02 12:55:49;;;;;;;5.57;4.20;;;;;;;;;;10369498;28;20591;-77
2022/05/02 13:00:52;;;;;;;4.00;3.70;;;;;;;;;;10375825;28;20081;-78
2022/05/02 13:05:55;;;;;;;5.50;3.90;;;;;;;;;;10357591;28;20153;-78
2022/05/02 13:11:02;;;;;;;4.23;3.83;;;;;;;;;;10382161;28;20072;-79
2022/05/02 13:16:11;;;;;;;4.53;4.10;;;;;;;;;;10360145;28;20042;-75
2022/05/02 13:21:12;;;;;;;4.85;4.45;;;;;;;;;;10365209;28;20310;-77
2022/05/02 13:26:33;;;;;;;4.60;4.20;;;;;;;;;;10371990;28;20054;-78
2022/05/02 13:31:41;;;;;;;4.80;4.40;;;;;;;;;;10355265;28;20049;-78
2022/05/02 13:36:42;;;;;;;4.57;3.90;;;;;;;;;;10370945;28;20084;-75
2022/05/02 13:41:49;;;;;;;4.78;4.38;;;;;;;;;;10359795;28;20054;-80
2022/05/02 13:46:50;;;;;;;4.30;3.90;;;;;;;;;;10338071;28;20084;-76
2022/05/02 13:52:01;;;;;;;4.33;3.93;;;;;;;;;;10369062;28;20100;-76
2022/05/02 13:57:14;;;;;;;4.33;3.93;;;;;;;;;;10366924;28;20042;-78
2022/05/02 14:02:35;;;;;;;4.65;4.25;;;;;;;;;;10329215;28;20104;-78
2022/05/02 14:07:39;;;;;;;3.97;3.60;;;;;;;;;;10359507;28;20151;-79
2022/05/02 14:12:41;;;;;;;4.70;3.80;;;;;;;;;;10385149;28;20093;-80
2022/05/02 14:17:44;;;;;;;;;;;;;;;;;;10365042;28;20150;-78
2022/05/02 14:22:45;;;;;;;2.37;2.20;;;;;;;;;;10393366;28;19917;-79
2022/05/02 14:27:45;;;;;;;2.13;1.90;;;;;;;;;;10367251;28;20038;-78
2022/05/02 14:32:45;;;;;;;2.63;2.43;;;;;;;;;;10366661;28;20276;-78
2022/05/02 14:37:46;;;;;;;2.87;2.60;;;;;;;;;;10365770;28;20396;-78
2022/05/02 14:42:48;;;;;;;2.95;2.65;;;;;;;;;;10333039;28;20429;-77
2022/05/02 14:47:49;;;;;;;2.83;2.60;;;;;;;;;;10350670;28;20054;-77
2022/05/02 14:52:50;;;;;;;3.90;3.60;;;;;;;;;;10343477;28;20065;-79
2022/05/02 14:57:51;;;;;;;4.32;3.70;;;;;;;;;;10332710;28;20493;-78
2022/05/02 15:02:53;;;;;;;4.00;3.70;;;;;;;;;;10353556;28;20049;-79
2022/05/02 15:08:03;;;;;;;4.35;3.95;;;;;;;;;;10383060;28;20061;-77
2022/05/02 15:13:03;;;;;;;4.13;3.72;;;;;;;;;;10366446;28;20050;-76
2022/05/02 15:18:05;;;;;;;3.38;3.08;;;;;;;;;;10368517;28;20446;-77
2022/05/02 15:23:07;;;;;;;2.72;2.33;;;;;;;;;;10352692;28;20038;-77
2022/05/02 15:38:53;;;;;;;2.85;2.55;;;;;;;;;;10367197;28;20085;-76
2022/05/02 15:43:55;;;;;;;3.30;2.85;;;;;;;;;;10360034;28;20083;-77
2022/05/02 15:49:05;;;;;;;4.57;3.35;;;;;;;;;;10360555;28;20093;-76
2022/05/02 15:54:17;;;;;;;5.72;3.97;;;;;;;;;;10343729;28;20449;-78
2022/05/02 15:59:28;;;;;;;3.42;3.13;;;;;;;;;;10341220;28;20069;-76
2022/05/02 16:04:31;;;;;;;4.28;3.88;;;;;;;;;;10370320;28;20046;-77
2022/05/02 16:14:54;;;;;;;4.45;3.50;;;;;;;;;;10359893;28;20080;-76
2022/05/02 16:19:54;;;;;;;3.58;3.28;;;;;;;;;;10350816;28;20053;-74
2022/05/02 16:25:00;;;;;;;4.53;3.78;;;;;;;;;;10369558;28;20037;-76
2022/05/02 16:30:01;;;;;;;4.68;4.07;;;;;;;;;;10366981;28;20444;-76
2022/05/02 16:35:11;;;;;;;4.43;4.03;;;;;;;;;;10369275;28;20514;-77
2022/05/02 16:40:16;;;;;;;4.68;4.13;;;;;;;;;;10387805;28;20370;-80
2022/05/02 16:45:16;;;;;;;4.47;4.07;;;;;;;;;;10359638;28;20141;-79
2022/05/02 16:50:28;;;;;;;4.23;3.83;;;;;;;;;;10377107;28;20140;-78
2022/05/02 16:55:30;;;;;;;4.07;3.78;;;;;;;;;;10377099;28;20316;-77
2022/05/02 17:00:33;;;;;;;5.30;4.15;;;;;;;;;;10342283;28;20056;-78
2022/05/02 17:05:37;;;;;;;4.38;3.97;;;;;;;;;;10371744;28;20077;-78
2022/05/02 17:10:42;;;;;;;4.25;3.85;;;;;;;;;;10367312;28;20095;-78
2022/05/02 17:15:43;;;;;;;4.07;3.67;;;;;;;;;;10372000;28;20045;-78
2022/05/02 17:20:45;;;;;;;3.70;3.40;;;;;;;;;;10369293;28;20057;-78
2022/05/02 17:25:47;;;;;;;4.10;3.70;;;;;;;;;;10373761;28;20046;-78
2022/05/02 17:30:48;;;;;;;3.33;2.83;;;;;;;;;;10378034;28;20042;-79
2022/05/02 17:35:51;;;;;;;2.85;2.60;;;;;;;;;;10346949;28;20104;-78
2022/05/02 17:40:53;;;;;;;2.50;2.20;;;;;;;;;;10374726;28;20074;-80
2022/05/02 17:45:56;;;;;;;2.35;2.15;;;;;;;;;;10355317;28;20053;-78
2022/05/02 17:51:08;;;;;;;2.58;2.38;;;;;;;;;;10355458;28;20042;-78
2022/05/02 17:56:18;;;;;;;3.50;3.20;;;;;;;;;;10354180;28;20379;-77
2022/05/02 18:01:19;;;;;;;3.85;2.85;;;;;;;;;;10370607;28;20637;-77
2022/05/02 18:06:24;;;;;;;3.60;3.30;;;;;;;;;;10356935;28;20080;-80
2022/05/02 18:17:15;;;;;;;4.32;3.83;;;;;;;;;;10375881;28;20101;-79
2022/05/02 18:22:23;;;;;;;4.40;4.00;;;;;;;;;;10388134;28;20065;-79
2022/05/02 18:27:25;;;;;;;6.03;4.15;;;;;;;;;;10381655;28;20081;-79
2022/05/02 18:32:26;;;;;;;4.03;3.17;;;;;;;;;;10366194;28;20037;-78
2022/05/02 18:37:28;;;;;;;4.45;3.47;;;;;;;;;;10385427;28;20046;-78
2022/05/02 18:42:34;;;;;;;5.40;3.70;;;;;;;;;;10380103;28;20052;-80
2022/05/02 18:53:03;;;;;;;4.50;4.05;;;;;;;;;;10385485;28;20041;-77
2022/05/02 18:58:06;;;;;;;4.57;4.18;;;;;;;;;;10382150;28;20057;-77
2022/05/02 19:03:09;;;;;;;8.48;6.78;;;;;;;;;;10367684;28;20045;-78
2022/05/02 19:08:11;;;;;;;7.45;5.65;;;;;;;;;;10345440;28;20041;-77
2022/05/02 19:13:15;;;;;;;5.38;4.88;;;;;;;;;;10371007;28;20050;-79
2022/05/02 19:18:15;;;;;;;5.82;5.25;;;;;;;;;;10370275;28;20058;-80
2022/05/02 19:23:43;;;;;;;5.63;4.60;;;;;;;;;;10374712;28;20064;-78
2022/05/02 19:28:46;;;;;;;6.82;5.32;;;;;;;;;;10333088;28;20056;-79
2022/05/02 19:33:46;;;;;;;;;;;;;;;;;;10340599;28;20419;-78
2022/05/02 19:39:16;;;;;;;6.57;5.97;;;;;;;;;;10346742;28;19925;-78
2022/05/02 19:44:20;;;;;;;7.90;6.80;;;;;;;;;;10365518;28;20134;-76
2022/05/02 19:49:22;;;;;;;7.50;6.80;;;;;;;;;;10349583;28;20136;-76
2022/05/02 19:54:23;;;;;;;7.17;6.47;;;;;;;;;;10353990;28;20435;-79
2022/05/02 19:59:23;;;;;;;7.40;6.70;;;;;;;;;;10386571;28;20382;-76
2022/05/02 20:04:24;;;;;;;6.90;6.30;;;;;;;;;;10353749;28;20045;-79
2022/05/02 20:09:27;;;;;;;8.10;7.10;;;;;;;;;;10359289;28;20049;-78
2022/05/02 20:14:28;;;;;;;6.45;5.85;;;;;;;;;;10364229;28;20120;-77
2022/05/02 20:19:29;;;;;;;6.65;6.00;;;;;;;;;;10357096;28;20593;-77
2022/05/02 20:24:31;;;;;;;6.50;5.85;;;;;;;;;;10364693;28;20049;-76
2022/05/02 20:29:32;;;;;;;8.07;6.57;;;;;;;;;;10366641;28;20050;-76
2022/05/02 20:39:52;;;;;;;8.15;7.35;;;;;;;;;;10360395;28;20062;-78
2022/05/02 20:45:06;;;;;;;7.00;6.30;;;;;;;;;;10347399;28;20077;-77
2022/05/02 20:50:07;;;;;;;6.85;6.22;;;;;;;;;;10366080;28;20051;-77
2022/05/02 20:55:07;;;;;;;8.20;6.63;;;;;;;;;;10354669;28;20377;-77
2022/05/02 21:00:08;;;;;;;8.07;6.97;;;;;;;;;;10358909;28;20073;-78
2022/05/02 21:05:11;;;;;;;7.00;6.30;;;;;;;;;;10373779;28;20045;-76
2022/05/02 21:10:12;;;;;;;8.00;7.10;;;;;;;;;;10351420;28;20057;-77
2022/05/02 21:15:30;;;;;;;7.53;6.53;;;;;;;;;;10363333;28;20057;-77
2022/05/02 21:20:43;;;;;;;8.27;7.25;;;;;;;;;;10357486;28;20045;-77
2022/05/02 21:25:45;;;;;;;7.10;6.40;;;;;;;;;;10370604;28;20050;-78
2022/05/02 21:30:52;;;;;;;7.28;6.47;;;;;;;;;;10351314;28;20034;-77
2022/05/02 21:35:56;;;;;;;7.13;6.43;;;;;;;;;;10377400;28;20446;-76
2022/05/02 21:40:56;;;;;;;6.97;6.28;;;;;;;;;;10359843;28;20053;-77
2022/05/02 21:45:56;;;;;;;8.55;7.60;;;;;;;;;;10369883;28;20431;-77
2022/05/02 21:50:57;;;;;;;7.93;7.22;;;;;;;;;;10362247;28;20034;-78
2022/05/02 21:55:57;;;;;;;8.60;7.65;;;;;;;;;;10334548;28;20078;-76
2022/05/02 22:00:59;;;;;;;8.60;7.70;;;;;;;;;;10352490;28;20065;-81
2022/05/02 22:05:59;;;;;;;8.93;8.00;;;;;;;;;;10369374;28;20057;-76
2022/05/02 22:11:00;;;;;;;11.53;9.83;;;;;;;;;;10346287;28;20128;-77
2022/05/02 22:16:00;;;;;;;10.33;9.20;;;;;;;;;;10365409;28;20292;-77
2022/05/02 22:21:00;;;;;;;9.75;8.80;;;;;;;;;;10333177;28;20073;-77
2022/05/02 22:26:01;;;;;;;10.20;9.10;;;;;;;;;;10378305;28;20046;-76
2022/05/02 22:31:01;;;;;;;10.50;9.50;;;;;;;;;;10345912;28;20273;-78
2022/05/02 22:36:03;;;;;;;10.18;8.88;;;;;;;;;;10367448;28;20280;-77
2022/05/02 22:41:03;;;;;;;12.20;9.50;;;;;;;;;;10358717;28;20080;-77
2022/05/02 22:46:03;;;;;;;11.48;9.82;;;;;;;;;;10351959;28;20052;-76
2022/05/02 22:51:04;;;;;;;10.67;9.57;;;;;;;;;;10367417;28;20595;-77
2022/05/02 22:56:04;;;;;;;9.68;8.68;;;;;;;;;;10344728;28;20269;-78
2022/05/02 23:01:05;;;;;;;10.25;9.07;;;;;;;;;;10345618;28;20114;-77
2022/05/02 23:06:08;;;;;;;10.90;9.80;;;;;;;;;;10343291;28;20500;-78
2022/05/02 23:11:09;;;;;;;11.85;10.32;;;;;;;;;;10363690;28;20121;-77
2022/05/02 23:16:10;;;;;;;9.88;8.88;;;;;;;;;;10385575;28;20046;-77
2022/05/02 23:21:14;;;;;;;11.25;8.15;;;;;;;;;;10376199;28;20057;-78
2022/05/02 23:26:15;;;;;;;11.95;9.60;;;;;;;;;;10365670;28;20457;-77
2022/05/02 23:31:33;;;;;;;11.27;9.80;;;;;;;;;;10365041;28;20053;-78
2022/05/02 23:36:37;;;;;;;12.02;10.70;;;;;;;;;;10343126;28;20488;-76
2022/05/02 23:41:43;;;;;;;10.70;9.60;;;;;;;;;;10341647;28;20058;-76
2022/05/02 23:46:44;;;;;;;10.48;9.40;;;;;;;;;;10347973;28;20050;-78
2022/05/02 23:51:50;;;;;;;10.85;9.73;;;;;;;;;;10352487;28;20061;-76
2022/05/02 23:57:02;;;;;;;10.18;9.18;;;;;;;;;;10341465;28;20424;-77
